Enterprise, Oklahoma
Current Conditions -  °F | °C
As of 3:15 PM on Saturday 25 Oct 2014 (Local Time) from KGZL Reporting Station
Clear Clear  
Wind Chill: 88°   Ceiling: Unl
Heat Index: 88°   Visibility: 7mi
Dew Point: 54°   Wind: 7mph
Humidity: 31%   Direction: 250°WSW
Pressure: 30.03"   Gusts: NA
Location:  35.2928°N, 95.0844°W
Report Text: KGZL 252015Z AUTO 25006KT 7SM CLR 31/12 A3003 RMK AO2
Loading
Personal Weather Stations






























Interactive Weather Map
Tropical Storm Tracking
New forecast layout! Learn more

10-Day Weather Forecast

Advertisements
Track Severe Weather on mobile